Terminal Aerodrome Forecast
Issued by NWS Blacksburg, VA

Home | Current Version | Previous Version | Text Only | Print | Product List | Glossary On
Versions: 1 2 3 4 5 6 7 8 9 10 11 12 13 14 15 16 17 18 19 20 21 22 23 24 25
000
FTUS41 KRNK 261124
TAFROA
TAF
KROA 261124Z 2612/2712 28010KT P6SM BKN040
     FM261400 28015G27KT P6SM SCT050
     FM270000 29006KT P6SM SCT120
     FM271000 27006KT P6SM BKN070=

USA.gov is the U.S. government's official web portal to all federal, state and local government web resources and services.